createdAt,value
2023-01-11T00:04:03.866Z,9.48
2023-01-11T00:09:05.970Z,10.65
2023-01-11T00:14:08.100Z,10.00
2023-01-11T00:19:10.170Z,10.40
2023-01-11T00:24:12.309Z,11.40
2023-01-11T00:29:14.394Z,9.48
2023-01-11T00:34:17.056Z,10.40
2023-01-11T00:39:19.128Z,10.80
2023-01-11T00:44:40.041Z,10.52
2023-01-11T00:49:42.974Z,9.77
2023-01-11T00:54:45.075Z,10.73
2023-01-11T00:59:47.257Z,8.57
2023-01-11T01:04:49.338Z,9.88
2023-01-11T01:09:51.517Z,10.13
2023-01-11T01:14:53.615Z,10.73
2023-01-11T01:19:55.708Z,10.73
2023-01-11T01:24:57.790Z,8.73
2023-01-11T01:30:00.116Z,11.52
2023-01-11T01:35:02.282Z,9.38
2023-01-11T01:40:05.588Z,10.00
2023-01-11T01:45:23.163Z,9.05
2023-01-11T01:50:33.118Z,11.55
2023-01-11T01:55:39.124Z,10.45
2023-01-11T02:00:43.951Z,7.85
2023-01-11T02:05:46.207Z,10.37
2023-01-11T02:10:49.702Z,9.05
2023-01-11T02:16:07.786Z,10.63
2023-01-11T02:21:18.940Z,11.12
2023-01-11T02:26:58.975Z,12.20
2023-01-11T02:32:33.696Z,11.23
2023-01-11T02:37:54.707Z,12.32
2023-01-11T02:43:39.795Z,11.23
2023-01-11T02:49:12.561Z,11.52
2023-01-11T02:54:18.673Z,11.40
2023-01-11T02:59:23.894Z,13.60
2023-01-11T03:04:35.633Z,15.05
2023-01-11T03:09:56.763Z,12.52
2023-01-11T03:15:36.205Z,14.13
2023-01-11T03:21:16.221Z,12.80
2023-01-11T03:26:36.917Z,11.20
2023-01-11T03:31:44.233Z,13.80
2023-01-11T03:36:46.252Z,14.55
2023-01-11T03:41:51.464Z,14.13
2023-01-11T03:46:59.603Z,14.87
2023-01-11T03:52:05.421Z,9.40
2023-01-11T03:57:20.831Z,14.55
2023-01-11T04:02:27.452Z,15.07
2023-01-11T04:07:29.633Z,14.02
2023-01-11T04:12:31.700Z,11.60
2023-01-11T04:17:33.780Z,12.43
2023-01-11T04:22:36.252Z,13.13
2023-01-11T04:27:38.296Z,13.75
2023-01-11T04:32:40.392Z,13.73
2023-01-11T04:37:42.543Z,14.77
2023-01-11T04:42:46.728Z,14.03
2023-01-11T04:47:55.699Z,14.13
2023-01-11T04:52:59.036Z,17.37
2023-01-11T04:58:01.112Z,14.27
2023-01-11T05:03:03.187Z,14.07
2023-01-11T05:08:05.404Z,15.77
2023-01-11T05:13:07.514Z,15.07
2023-01-11T05:18:09.677Z,15.52
2023-01-11T05:23:11.770Z,18.12
2023-01-11T05:28:13.857Z,15.63
2023-01-11T05:33:15.952Z,17.27
2023-01-11T05:38:18.059Z,18.58
2023-01-11T05:43:21.293Z,16.00
2023-01-11T05:48:24.270Z,14.40
2023-01-11T05:53:26.378Z,17.15
2023-01-11T05:58:28.478Z,17.30
2023-01-11T06:03:30.591Z,23.52
2023-01-11T06:08:32.756Z,18.58
2023-01-11T06:13:34.867Z,17.75
2023-01-11T06:18:42.091Z,20.23
2023-01-11T06:23:47.077Z,20.30
2023-01-11T06:28:50.164Z,16.75
2023-01-11T06:33:52.305Z,18.52
2023-01-11T06:38:54.416Z,18.42
2023-01-11T06:43:56.638Z,21.58
2023-01-11T06:48:58.729Z,20.43
2023-01-11T06:54:00.834Z,20.10
2023-01-11T06:59:02.901Z,21.05
2023-01-11T07:04:05.253Z,21.67
2023-01-11T07:09:07.351Z,20.23
2023-01-11T07:14:09.861Z,16.23
2023-01-11T07:19:12.181Z,15.88
2023-01-11T07:24:14.375Z,17.60
2023-01-11T07:29:16.434Z,18.58
2023-01-11T07:34:18.537Z,20.15
2023-01-11T07:39:23.290Z,18.73
2023-01-11T07:44:27.321Z,16.45
2023-01-11T07:49:29.636Z,18.67
2023-01-11T07:54:31.730Z,16.62
2023-01-11T07:59:33.895Z,19.83
2023-01-11T08:04:35.948Z,18.53
2023-01-11T08:09:38.023Z,17.90
2023-01-11T08:14:40.229Z,16.08
2023-01-11T08:19:43.171Z,20.48
2023-01-11T08:24:45.312Z,18.95
2023-01-11T08:29:47.401Z,16.97
2023-01-11T08:34:49.496Z,16.25
2023-01-11T08:39:51.583Z,18.40
2023-01-11T08:44:55.434Z,20.70
2023-01-11T08:49:57.551Z,17.10
2023-01-11T08:54:59.716Z,16.87
2023-01-11T09:00:03.705Z,18.40
2023-01-11T09:05:06.289Z,17.23
2023-01-11T09:10:09.037Z,20.92
2023-01-11T09:15:11.841Z,16.10
2023-01-11T09:20:14.295Z,16.97
2023-01-11T09:25:16.623Z,18.65
2023-01-11T09:30:21.237Z,18.12
2023-01-11T09:35:23.445Z,18.15
2023-01-11T09:40:42.094Z,13.88
2023-01-11T09:45:47.136Z,18.63
2023-01-11T09:50:49.602Z,16.15
2023-01-11T09:55:53.559Z,14.65
2023-01-11T10:00:55.703Z,13.10
2023-01-11T10:06:15.086Z,18.40
2023-01-11T10:18:30.858Z,13.82
2023-01-11T10:22:58.999Z,13.43
2023-01-11T10:28:07.609Z,13.02
2023-01-11T10:33:45.535Z,15.23
2023-01-11T10:38:56.370Z,15.50
2023-01-11T10:44:19.429Z,12.98
2023-01-11T10:49:30.286Z,13.55
2023-01-11T10:54:35.658Z,16.80
2023-01-11T10:59:59.738Z,13.62
2023-01-11T11:05:20.680Z,12.77
2023-01-11T11:10:35.937Z,11.48
2023-01-11T11:15:48.226Z,17.10
2023-01-11T11:20:50.577Z,13.80
2023-01-11T11:25:57.418Z,13.68
2023-01-11T11:31:03.156Z,12.43
2023-01-11T11:36:07.986Z,12.43
2023-01-11T11:41:11.825Z,11.77
2023-01-11T11:46:18.900Z,11.97
2023-01-11T11:51:23.658Z,12.45
2023-01-11T11:56:33.927Z,12.07
2023-01-11T12:01:44.098Z,14.18
2023-01-11T12:07:04.870Z,11.15
2023-01-11T12:12:07.486Z,11.87
2023-01-11T12:17:23.515Z,10.20
2023-01-11T12:22:29.128Z,10.53
2023-01-11T12:27:56.262Z,11.45
2023-01-11T12:33:29.524Z,10.45
2023-01-11T12:39:09.732Z,10.40
2023-01-11T12:44:27.551Z,9.93
2023-01-11T12:49:54.329Z,11.37
2023-01-11T12:55:20.683Z,9.63
2023-01-11T13:00:37.754Z,9.80
2023-01-11T13:06:01.857Z,9.70
2023-01-11T13:11:36.346Z,9.95
2023-01-11T13:17:17.556Z,10.13
2023-01-11T13:22:24.694Z,8.80
2023-01-11T13:27:31.774Z,10.70
2023-01-11T13:32:40.206Z,9.27
2023-01-11T13:37:58.603Z,9.85
2023-01-11T13:43:22.622Z,11.40
2023-01-11T13:48:43.237Z,10.13
2023-01-11T13:54:41.083Z,10.57
2023-01-11T13:59:49.191Z,11.05
2023-01-11T14:05:10.619Z,12.35
2023-01-11T14:10:37.573Z,13.57
2023-01-11T14:16:04.053Z,14.27
2023-01-11T14:21:47.771Z,11.20
2023-01-11T14:26:57.412Z,11.12
2023-01-11T14:32:24.348Z,12.60
2023-01-11T14:38:04.270Z,12.27
2023-01-11T14:43:43.723Z,13.95
2023-01-11T14:49:09.396Z,14.87
2023-01-11T14:54:23.490Z,15.77
2023-01-11T14:59:31.684Z,15.32
2023-01-11T15:04:52.109Z,16.47
2023-01-11T15:09:54.619Z,14.93
2023-01-11T15:15:03.945Z,14.70
2023-01-11T15:20:12.916Z,15.75
2023-01-11T15:25:23.801Z,17.17
2023-01-11T15:30:28.893Z,17.37
2023-01-11T15:35:34.809Z,17.48
2023-01-11T15:40:41.601Z,16.25
2023-01-11T15:46:03.588Z,16.90
2023-01-11T15:51:35.307Z,17.98
2023-01-11T15:56:53.136Z,15.10
2023-01-11T16:02:13.813Z,16.37
2023-01-11T16:07:40.578Z,16.95
2023-01-11T16:13:15.341Z,17.02
2023-01-11T16:18:23.287Z,16.35
2023-01-11T16:23:25.645Z,18.13
2023-01-11T16:28:28.618Z,17.98
2023-01-11T16:33:32.947Z,18.08
2023-01-11T16:39:04.281Z,17.23
2023-01-11T16:44:09.027Z,16.42
2023-01-11T16:49:16.211Z,16.80
2023-01-11T16:54:28.527Z,17.02
2023-01-11T16:59:30.962Z,17.25
2023-01-11T17:04:36.157Z,17.15
2023-01-11T17:09:38.315Z,17.40
2023-01-11T17:15:17.681Z,16.90
2023-01-11T17:20:22.179Z,18.85
2023-01-11T17:25:41.126Z,19.10
2023-01-11T17:30:50.557Z,19.83
2023-01-11T17:35:53.857Z,20.33
2023-01-11T17:40:57.043Z,22.90
2023-01-11T17:46:02.670Z,23.12
2023-01-11T17:51:05.823Z,27.00
2023-01-11T17:56:38.492Z,22.62
2023-01-11T18:01:49.338Z,27.75
2023-01-11T18:06:55.555Z,27.90
2023-01-11T18:12:12.273Z,27.85
2023-01-11T18:17:32.753Z,27.10
2023-01-11T18:22:42.722Z,24.73
2023-01-11T18:27:46.814Z,25.80
2023-01-11T18:32:48.966Z,29.97
2023-01-11T18:37:51.113Z,26.30
2023-01-11T18:42:53.960Z,25.42
2023-01-11T18:47:56.047Z,24.10
2023-01-11T18:52:58.192Z,27.70
2023-01-11T18:58:00.752Z,28.73
2023-01-11T19:03:04.732Z,30.60
2023-01-11T19:08:08.057Z,32.03
2023-01-11T19:13:10.555Z,28.62
2023-01-11T19:18:16.410Z,28.65
2023-01-11T19:23:18.589Z,29.67
2023-01-11T19:28:20.759Z,34.53
2023-01-11T19:33:22.998Z,32.80
2023-01-11T19:38:25.416Z,33.85
2023-01-11T19:43:29.326Z,35.28
2023-01-11T19:48:34.745Z,35.03
2023-01-11T19:53:39.579Z,31.55
2023-01-11T19:58:41.693Z,37.00
2023-01-11T20:03:46.285Z,35.22
2023-01-11T20:08:48.465Z,36.20
2023-01-11T20:13:52.022Z,35.53
2023-01-11T20:18:56.914Z,35.67
2023-01-11T20:23:59.650Z,34.42
2023-01-11T20:29:02.152Z,33.00
2023-01-11T20:34:10.082Z,39.95
2023-01-11T20:39:12.409Z,35.40
2023-01-11T20:44:16.216Z,39.05
2023-01-11T20:49:19.449Z,36.65
2023-01-11T20:54:21.597Z,39.38
2023-01-11T20:59:23.641Z,38.00
2023-01-11T21:04:25.747Z,42.53
2023-01-11T21:09:27.851Z,44.05
2023-01-11T21:14:30.587Z,42.42
2023-01-11T21:19:32.759Z,40.47
2023-01-11T21:24:36.851Z,41.17
2023-01-11T21:29:38.999Z,43.13
2023-01-11T21:34:41.166Z,43.45
2023-01-11T21:39:44.531Z,43.35
2023-01-11T21:44:46.713Z,48.50
2023-01-11T21:49:48.951Z,38.97
2023-01-11T21:54:52.188Z,42.60
2023-01-11T21:59:54.369Z,41.70
2023-01-11T22:04:57.757Z,42.72
2023-01-11T22:10:05.134Z,46.95
2023-01-11T22:15:08.392Z,44.35
2023-01-11T22:20:11.346Z,48.13
2023-01-11T22:25:13.468Z,46.33
2023-01-11T22:30:15.888Z,52.47
2023-01-11T22:35:20.933Z,45.53
2023-01-11T22:40:23.071Z,46.53
2023-01-11T22:45:25.212Z,50.57
2023-01-11T22:50:29.867Z,52.72
2023-01-11T22:55:33.724Z,48.47
2023-01-11T23:00:36.834Z,50.20
2023-01-11T23:05:46.268Z,48.97
2023-01-11T23:10:48.821Z,49.10
2023-01-11T23:15:54.946Z,46.25
2023-01-11T23:21:03.072Z,49.70
2023-01-11T23:26:07.257Z,46.30
2023-01-11T23:31:17.136Z,48.53
2023-01-11T23:36:21.601Z,46.40
2023-01-11T23:41:42.877Z,46.60
2023-01-11T23:47:04.768Z,45.97
2023-01-11T23:52:07.307Z,42.40
2023-01-11T23:57:12.307Z,47.80
